createdAt,value
2018-06-04T00:02:27.645Z,17.30
2018-06-04T00:07:29.588Z,17.00
2018-06-04T00:10:00.517Z,17.00
2018-06-04T00:12:32.037Z,16.90
2018-06-04T00:15:06.221Z,16.80
2018-06-04T00:17:36.630Z,16.70
2018-06-04T00:22:37.654Z,16.50
2018-06-04T00:25:08.167Z,16.50
2018-06-04T00:27:38.736Z,16.50
2018-06-04T00:30:10.416Z,16.50
2018-06-04T00:32:41.097Z,16.50
2018-06-04T00:35:12.266Z,16.50
2018-06-04T00:37:42.874Z,16.50
2018-06-04T00:40:14.174Z,16.50
2018-06-04T00:45:15.943Z,16.50
2018-06-04T00:47:46.315Z,16.50
2018-06-04T00:50:18.075Z,16.50
2018-06-04T00:52:49.009Z,16.50
2018-06-04T00:55:19.254Z,16.60
2018-06-04T00:57:50.285Z,16.50
2018-06-04T01:00:21.335Z,16.50
2018-06-04T01:02:53.005Z,16.30
2018-06-04T01:05:24.327Z,16.20
2018-06-04T01:07:55.114Z,16.20
2018-06-04T01:10:26.444Z,16.10
2018-06-04T01:12:57.636Z,16.00
2018-06-04T01:15:28.826Z,15.90
2018-06-04T01:18:00.446Z,15.90
2018-06-04T01:20:30.784Z,15.90
2018-06-04T01:23:02.074Z,15.90
2018-06-04T01:25:33.726Z,16.00
2018-06-04T01:28:04.847Z,16.10
2018-06-04T01:30:36.177Z,16.20
2018-06-04T01:33:07.556Z,16.30
2018-06-04T01:38:08.896Z,16.60
2018-06-04T01:40:41.226Z,16.70
2018-06-04T01:43:12.406Z,16.70
2018-06-04T01:45:46.913Z,16.80
2018-06-04T01:48:18.424Z,16.90
2018-06-04T01:50:48.490Z,17.00
2018-06-04T01:53:20.216Z,17.10
2018-06-04T01:55:51.966Z,17.20
2018-06-04T01:58:23.427Z,17.30
2018-06-04T02:00:54.006Z,17.30
2018-06-04T02:03:24.388Z,17.30
2018-06-04T02:05:54.637Z,17.40
2018-06-04T02:08:27.622Z,17.50
2018-06-04T02:10:58.305Z,17.60
2018-06-04T02:13:28.987Z,17.70
2018-06-04T02:15:59.439Z,17.60
2018-06-04T02:18:29.946Z,17.50
2018-06-04T02:21:00.406Z,17.40
2018-06-04T02:23:51.066Z,17.30
2018-06-04T02:26:21.318Z,17.30
2018-06-04T02:28:51.683Z,17.40
2018-06-04T02:31:22.126Z,17.40
2018-06-04T02:33:56.159Z,17.20
2018-06-04T02:36:26.978Z,17.00
2018-06-04T02:38:57.637Z,16.90
2018-06-04T02:41:27.977Z,16.60
2018-06-04T02:43:58.427Z,16.50
2018-06-04T02:46:29.192Z,16.40
2018-06-04T02:49:00.110Z,16.20
2018-06-04T02:51:31.947Z,16.20
2018-06-04T02:54:02.180Z,16.10
2018-06-04T02:56:33.563Z,16.00
2018-06-04T02:59:19.399Z,16.00
2018-06-04T03:01:49.916Z,15.90
2018-06-04T03:04:20.297Z,15.90
2018-06-04T03:06:57.548Z,15.80
2018-06-04T03:09:28.527Z,15.80
2018-06-04T03:11:59.167Z,15.80
2018-06-04T03:14:32.937Z,15.80
2018-06-04T03:17:04.332Z,15.80
2018-06-04T03:19:34.815Z,15.80
2018-06-04T03:22:05.395Z,15.80
2018-06-04T03:24:35.466Z,15.80
2018-06-04T03:27:07.556Z,15.80
2018-06-04T03:29:38.126Z,15.80
2018-06-04T03:32:08.496Z,15.90
2018-06-04T03:34:40.246Z,16.00
2018-06-04T03:37:10.281Z,16.20
2018-06-04T03:39:41.736Z,16.40
2018-06-04T03:42:12.026Z,16.90
2018-06-04T03:44:43.885Z,17.40
2018-06-04T03:47:13.847Z,17.90
2018-06-04T03:49:44.686Z,18.40
2018-06-04T03:52:14.765Z,18.90
2018-06-04T03:54:46.313Z,19.50
2018-06-04T03:57:16.427Z,19.90
2018-06-04T03:59:46.896Z,20.10
2018-06-04T04:02:16.897Z,20.30
2018-06-04T04:04:48.136Z,20.40
2018-06-04T04:07:18.136Z,20.10
2018-06-04T04:09:48.877Z,19.70
2018-06-04T04:12:19.478Z,19.60
2018-06-04T04:14:50.775Z,19.60
2018-06-04T04:17:20.745Z,19.70
2018-06-04T04:19:52.295Z,19.90
2018-06-04T04:22:22.286Z,20.10
2018-06-04T04:24:52.376Z,20.40
2018-06-04T04:27:22.865Z,20.70
2018-06-04T04:29:52.995Z,21.20
2018-06-04T04:32:23.878Z,21.90
2018-06-04T04:34:55.215Z,22.60
2018-06-04T04:37:25.376Z,23.30
2018-06-04T04:39:55.416Z,23.90
2018-06-04T04:42:26.596Z,24.40
2018-06-04T04:44:57.786Z,24.90
2018-06-04T04:47:27.838Z,25.40
2018-06-04T04:49:58.295Z,26.00
2018-06-04T04:52:29.316Z,26.60
2018-06-04T04:54:59.345Z,26.90
2018-06-04T04:57:29.364Z,27.10
2018-06-04T04:59:59.545Z,27.20
2018-06-04T05:02:31.006Z,27.50
2018-06-04T05:05:01.257Z,27.60
2018-06-04T05:07:32.475Z,27.50
2018-06-04T05:10:03.168Z,27.40
2018-06-04T05:12:34.306Z,27.30
2018-06-04T05:15:04.766Z,27.50
2018-06-04T05:17:35.216Z,27.50
2018-06-04T05:20:05.435Z,28.00
2018-06-04T05:22:35.507Z,27.70
2018-06-04T05:25:06.116Z,28.10
2018-06-04T05:27:36.195Z,28.50
2018-06-04T05:30:07.675Z,29.10
2018-06-04T05:32:38.075Z,29.10
2018-06-04T05:35:08.796Z,29.30
2018-06-04T05:37:38.867Z,29.20
2018-06-04T05:40:11.346Z,28.80
2018-06-04T05:42:41.445Z,28.90
2018-06-04T05:45:11.636Z,28.80
2018-06-04T05:47:41.815Z,28.80
2018-06-04T05:50:12.245Z,28.70
2018-06-04T05:52:42.564Z,28.50
2018-06-04T05:55:12.684Z,28.80
2018-06-04T05:57:43.404Z,29.30
2018-06-04T06:00:13.934Z,29.50
2018-06-04T06:02:44.776Z,29.70
2018-06-04T06:05:15.174Z,29.60
2018-06-04T06:07:45.756Z,29.30
2018-06-04T06:10:15.816Z,29.20
2018-06-04T06:12:46.457Z,28.90
2018-06-04T06:15:16.716Z,28.10
2018-06-04T06:17:47.244Z,27.40
2018-06-04T06:20:17.976Z,27.00
2018-06-04T06:22:49.208Z,26.60
2018-06-04T06:25:19.367Z,26.00
2018-06-04T06:27:49.794Z,25.60
2018-06-04T06:30:19.844Z,25.20
2018-06-04T06:32:50.387Z,25.00
2018-06-04T06:35:21.399Z,24.80
2018-06-04T06:37:51.676Z,24.70
2018-06-04T06:40:22.635Z,24.70
2018-06-04T06:42:53.986Z,24.70
2018-06-04T06:45:24.066Z,24.70
2018-06-04T06:47:54.645Z,24.80
2018-06-04T06:50:24.754Z,24.90
2018-06-04T06:52:55.026Z,25.00
2018-06-04T06:55:25.781Z,25.00
2018-06-04T06:57:56.135Z,25.00
2018-06-04T07:00:27.194Z,25.00
2018-06-04T07:02:57.605Z,24.80
2018-06-04T07:05:29.166Z,24.90
2018-06-04T07:08:00.556Z,25.00
2018-06-04T07:10:31.266Z,25.10
2018-06-04T07:13:01.766Z,25.20
2018-06-04T07:15:32.189Z,25.30
2018-06-04T07:18:02.566Z,25.40
2018-06-04T07:20:33.071Z,25.50
2018-06-04T07:23:03.136Z,25.50
2018-06-04T07:25:34.078Z,25.50
2018-06-04T07:30:35.083Z,25.60
2018-06-04T07:33:05.174Z,25.60
2018-06-04T07:35:35.965Z,25.50
2018-06-04T07:38:06.297Z,25.50
2018-06-04T07:40:37.235Z,25.50
2018-06-04T07:45:38.385Z,25.50
2018-06-04T07:48:09.733Z,25.50
2018-06-04T07:50:40.445Z,25.60
2018-06-04T07:53:10.906Z,25.60
2018-06-04T07:56:12.623Z,25.60
2018-06-04T07:58:42.894Z,25.80
2018-06-04T08:01:13.834Z,25.80
2018-06-04T08:03:44.125Z,25.80
2018-06-04T08:06:15.197Z,26.00
2018-06-04T08:08:45.503Z,26.10
2018-06-04T08:11:17.145Z,26.10
2018-06-04T08:13:48.646Z,26.10
2018-06-04T08:16:19.945Z,26.30
2018-06-04T08:18:50.974Z,26.40
2018-06-04T08:21:22.175Z,26.50
2018-06-04T08:23:52.797Z,26.60
2018-06-04T08:28:54.113Z,26.60
2018-06-04T08:31:25.466Z,26.70
2018-06-04T08:33:55.725Z,26.70
2018-06-04T08:36:26.986Z,26.80
2018-06-04T08:38:57.374Z,26.70
2018-06-04T08:41:27.483Z,26.80
2018-06-04T08:43:58.834Z,27.00
2018-06-04T08:48:59.045Z,27.50
2018-06-04T08:51:30.736Z,27.80
2018-06-04T08:54:01.185Z,27.90
2018-06-04T08:56:31.187Z,28.00
2018-06-04T08:59:01.248Z,28.10
2018-06-04T09:01:31.695Z,28.30
2018-06-04T09:04:03.044Z,28.30
2018-06-04T09:06:34.853Z,28.10
2018-06-04T09:11:37.615Z,28.20
2018-06-04T09:14:09.074Z,28.30
2018-06-04T09:16:40.425Z,28.70
2018-06-04T09:19:11.707Z,28.70
2018-06-04T09:21:43.707Z,28.80
2018-06-04T09:24:14.643Z,28.70
2018-06-04T09:26:46.365Z,28.70
2018-06-04T09:29:16.324Z,28.70
2018-06-04T09:31:46.565Z,28.60
2018-06-04T09:34:16.692Z,28.70
2018-06-04T09:36:47.974Z,29.00
2018-06-04T09:39:18.725Z,28.90
2018-06-04T09:41:50.805Z,29.00
2018-06-04T09:44:20.747Z,29.20
2018-06-04T09:46:52.605Z,29.10
2018-06-04T09:49:22.794Z,29.10
2018-06-04T09:51:54.125Z,29.20
2018-06-04T09:54:24.165Z,29.20
2018-06-04T09:56:54.934Z,29.20
2018-06-04T09:59:25.669Z,29.30
2018-06-04T10:01:56.217Z,29.30
2018-06-04T10:04:26.514Z,29.30
2018-06-04T10:06:56.965Z,29.40
2018-06-04T10:09:27.845Z,29.50
2018-06-04T10:11:58.474Z,29.50
2018-06-04T10:14:29.114Z,29.40
2018-06-04T10:16:59.323Z,29.60
2018-06-04T10:19:29.686Z,29.80
2018-06-04T10:21:59.854Z,29.90
2018-06-04T10:24:30.286Z,30.20
2018-06-04T10:27:00.536Z,30.20
2018-06-04T10:29:32.378Z,30.20
2018-06-04T10:32:03.035Z,30.20
2018-06-04T10:34:33.473Z,30.20
2018-06-04T10:37:04.133Z,30.20
2018-06-04T10:39:34.535Z,30.10
2018-06-04T10:42:06.034Z,30.10
2018-06-04T10:44:36.185Z,30.00
2018-06-04T10:47:07.074Z,29.90
2018-06-04T10:49:37.956Z,29.60
2018-06-04T10:52:08.344Z,29.40
2018-06-04T10:54:38.294Z,29.40
2018-06-04T10:57:09.606Z,29.50
2018-06-04T10:59:41.554Z,29.70
2018-06-04T11:04:42.925Z,29.90
2018-06-04T11:09:45.148Z,29.90
2018-06-04T11:12:15.685Z,30.10
2018-06-04T11:14:45.805Z,30.20
2018-06-04T11:17:17.054Z,30.20
2018-06-04T11:19:49.074Z,30.20
2018-06-04T11:22:21.175Z,30.30
2018-06-04T11:24:53.633Z,30.40
2018-06-04T11:27:25.877Z,30.40
2018-06-04T11:29:56.233Z,30.40
2018-06-04T11:32:26.385Z,30.60
2018-06-04T11:34:56.685Z,30.70
2018-06-04T11:37:27.347Z,30.60
2018-06-04T11:39:57.865Z,30.40
2018-06-04T11:42:29.373Z,30.30
2018-06-04T11:45:00.233Z,30.30
2018-06-04T11:47:30.645Z,30.40
2018-06-04T11:50:01.074Z,30.50
2018-06-04T11:52:32.134Z,30.60
2018-06-04T11:55:03.005Z,30.60
2018-06-04T12:00:03.474Z,30.50
2018-06-04T12:02:34.575Z,30.50
2018-06-04T12:05:05.536Z,30.40
2018-06-04T12:07:35.722Z,30.40
2018-06-04T12:10:06.245Z,30.60
2018-06-04T12:12:37.966Z,30.80
2018-06-04T12:15:08.455Z,30.90
2018-06-04T12:17:39.683Z,30.90
2018-06-04T12:20:10.805Z,31.20
2018-06-04T12:22:41.993Z,31.30
2018-06-04T12:25:12.284Z,31.20
2018-06-04T12:27:42.774Z,31.20
2018-06-04T12:30:14.242Z,31.50
2018-06-04T12:32:44.765Z,31.60
2018-06-04T12:35:15.614Z,31.60
2018-06-04T12:37:46.214Z,31.80
2018-06-04T12:40:17.024Z,31.70
2018-06-04T12:42:47.193Z,31.70
2018-06-04T12:45:18.313Z,31.60
2018-06-04T12:47:48.924Z,31.60
2018-06-04T12:50:19.753Z,31.60
2018-06-04T12:52:50.846Z,31.40
2018-06-04T12:55:21.994Z,31.10
2018-06-04T12:57:52.644Z,31.10
2018-06-04T13:00:24.274Z,30.50
2018-06-04T13:02:56.137Z,30.20
2018-06-04T13:05:26.387Z,30.00
2018-06-04T13:07:58.574Z,30.00
2018-06-04T13:10:29.834Z,30.00
2018-06-04T13:13:00.194Z,30.10
2018-06-04T13:15:31.586Z,30.10
2018-06-04T13:18:03.194Z,30.20
2018-06-04T13:20:34.655Z,30.20
2018-06-04T13:23:05.464Z,30.20
2018-06-04T13:25:37.025Z,30.20
2018-06-04T13:28:07.553Z,30.20
2018-06-04T13:30:39.145Z,30.40
2018-06-04T13:33:10.425Z,30.50
2018-06-04T13:35:40.725Z,30.60
2018-06-04T13:38:12.259Z,30.40
2018-06-04T13:40:43.802Z,30.40
2018-06-04T13:43:14.934Z,30.30
2018-06-04T13:45:45.134Z,30.30
2018-06-04T13:48:16.718Z,30.40
2018-06-04T13:50:47.913Z,30.30
2018-06-04T13:53:18.404Z,30.40
2018-06-04T13:55:49.985Z,30.50
2018-06-04T13:58:20.274Z,30.60
2018-06-04T14:00:50.960Z,30.60
2018-06-04T14:03:21.614Z,30.50
2018-06-04T14:08:22.440Z,30.40
2018-06-04T14:10:54.093Z,30.40
2018-06-04T14:13:24.962Z,30.20
2018-06-04T14:18:26.425Z,30.20
2018-06-04T14:23:26.654Z,30.30
2018-06-04T14:25:57.385Z,30.40
2018-06-04T14:28:28.062Z,30.40
2018-06-04T14:30:59.273Z,30.50
2018-06-04T14:35:59.553Z,30.30
2018-06-04T14:38:31.004Z,30.40
2018-06-04T14:41:01.635Z,30.50
2018-06-04T14:43:32.222Z,30.60
2018-06-04T14:46:03.162Z,30.60
2018-06-04T14:48:34.526Z,30.70
2018-06-04T14:51:05.154Z,30.80
2018-06-04T14:53:36.853Z,30.80
2018-06-04T14:56:07.292Z,30.90
2018-06-04T14:58:38.193Z,30.80
2018-06-04T15:03:39.495Z,30.60
2018-06-04T15:06:10.194Z,30.60
2018-06-04T15:08:42.154Z,30.70
2018-06-04T15:11:12.504Z,30.70
2018-06-04T15:13:42.943Z,30.70
2018-06-04T15:16:14.114Z,30.70
2018-06-04T15:18:45.094Z,30.70
2018-06-04T15:21:15.994Z,30.80
2018-06-04T15:26:21.406Z,31.10
2018-06-04T15:28:54.833Z,31.20
2018-06-04T15:31:26.523Z,31.10
2018-06-04T15:33:58.237Z,30.80
2018-06-04T15:36:31.505Z,30.80
2018-06-04T15:39:04.624Z,30.90
2018-06-04T15:41:35.935Z,31.00
2018-06-04T15:44:06.315Z,31.10
2018-06-04T15:46:36.684Z,30.90
2018-06-04T15:49:07.034Z,30.90
2018-06-04T15:51:39.051Z,31.00
2018-06-04T15:54:09.863Z,31.10
2018-06-04T15:56:40.112Z,31.10
2018-06-04T15:59:10.572Z,31.00
2018-06-04T16:01:41.616Z,30.90
2018-06-04T16:04:12.393Z,30.70
2018-06-04T16:06:43.144Z,30.60
2018-06-04T16:09:13.773Z,30.60
2018-06-04T16:11:44.343Z,30.50
2018-06-04T16:14:14.972Z,30.50
2018-06-04T16:16:46.033Z,30.40
2018-06-04T16:19:16.856Z,30.20
2018-06-04T16:21:47.403Z,30.00
2018-06-04T16:24:17.478Z,29.80
2018-06-04T16:29:19.818Z,29.30
2018-06-04T16:31:50.089Z,28.90
2018-06-04T16:34:20.936Z,28.60
2018-06-04T16:36:51.641Z,28.50
2018-06-04T16:39:22.188Z,28.20
2018-06-04T16:41:52.620Z,28.10
2018-06-04T16:44:23.288Z,27.90
2018-06-04T16:46:54.228Z,27.80
2018-06-04T16:49:24.208Z,27.70
2018-06-04T16:51:54.649Z,27.60
2018-06-04T16:54:25.458Z,27.60
2018-06-04T16:56:55.818Z,27.60
2018-06-04T16:59:26.222Z,27.80
2018-06-04T17:01:56.388Z,28.10
2018-06-04T17:04:27.586Z,28.60
2018-06-04T17:06:58.128Z,28.80
2018-06-04T17:09:28.339Z,28.80
2018-06-04T17:12:00.658Z,29.00
2018-06-04T17:14:31.388Z,29.30
2018-06-04T17:17:01.758Z,29.60
2018-06-04T17:19:32.888Z,29.90
2018-06-04T17:22:03.328Z,30.30
2018-06-04T17:24:33.938Z,30.60
2018-06-04T17:27:05.909Z,30.80
2018-06-04T17:29:36.019Z,30.70
2018-06-04T17:32:07.860Z,30.40
2018-06-04T17:34:38.127Z,30.30
2018-06-04T17:37:15.188Z,30.50
2018-06-04T17:39:45.928Z,30.70
2018-06-04T17:42:16.308Z,30.80
2018-06-04T17:44:46.318Z,30.90
2018-06-04T17:47:17.368Z,30.90
2018-06-04T17:49:47.718Z,30.90
2018-06-04T17:54:48.488Z,30.50
2018-06-04T17:57:21.209Z,30.40
2018-06-04T17:59:53.518Z,30.30
2018-06-04T18:02:27.984Z,30.20
2018-06-04T18:04:58.223Z,30.00
2018-06-04T18:07:28.634Z,29.90
2018-06-04T18:09:58.874Z,29.90
2018-06-04T18:12:29.103Z,29.80
2018-06-04T18:14:59.257Z,29.60
2018-06-04T18:17:29.554Z,29.40
2018-06-04T18:19:59.977Z,29.00
2018-06-04T18:22:30.224Z,28.70
2018-06-04T18:25:00.465Z,28.40
2018-06-04T18:30:15.303Z,27.80
2018-06-04T18:32:45.326Z,27.50
2018-06-04T18:37:45.575Z,26.80
2018-06-04T18:42:45.786Z,26.40
2018-06-04T18:45:17.543Z,26.20
2018-06-04T18:47:49.506Z,26.00
2018-06-04T18:50:20.047Z,25.80
2018-06-04T18:52:50.343Z,25.70
2018-06-04T18:55:20.475Z,25.50
2018-06-04T18:57:50.714Z,25.30
2018-06-04T19:00:20.894Z,25.20
2018-06-04T19:02:51.835Z,25.00
2018-06-04T19:05:22.864Z,24.80
2018-06-04T19:07:54.264Z,24.70
2018-06-04T19:10:24.423Z,24.70
2018-06-04T19:12:55.163Z,24.60
2018-06-04T19:15:25.455Z,24.60
2018-06-04T19:17:55.593Z,24.60
2018-06-04T19:20:25.633Z,24.50
2018-06-04T19:22:55.553Z,24.40
2018-06-04T19:25:25.684Z,24.30
2018-06-04T19:27:55.995Z,24.20
2018-06-04T19:30:26.384Z,24.10
2018-06-04T19:32:56.639Z,24.00
2018-06-04T19:35:27.191Z,23.90
2018-06-04T19:37:57.433Z,23.80
2018-06-04T19:42:58.184Z,23.50
2018-06-04T19:45:28.373Z,23.50
2018-06-04T19:50:28.407Z,23.30
2018-06-04T19:52:58.423Z,23.30
2018-06-04T19:55:28.563Z,23.20
2018-06-04T19:57:59.551Z,23.20
2018-06-04T20:00:29.808Z,23.10
2018-06-04T20:03:00.565Z,23.10
2018-06-04T20:05:30.863Z,23.00
2018-06-04T20:08:01.064Z,23.00
2018-06-04T20:10:31.274Z,22.90
2018-06-04T20:15:31.265Z,22.70
2018-06-04T20:18:01.604Z,22.70
2018-06-04T20:20:32.558Z,22.60
2018-06-04T20:23:02.947Z,22.50
2018-06-04T20:25:33.183Z,22.50
2018-06-04T20:28:03.523Z,22.50
2018-06-04T20:33:03.284Z,22.40
2018-06-04T20:35:34.024Z,22.40
2018-06-04T20:38:04.824Z,22.40
2018-06-04T20:43:05.296Z,22.30
2018-06-04T20:45:35.145Z,22.30
2018-06-04T20:48:05.776Z,22.30
2018-06-04T20:50:36.126Z,22.20
2018-06-04T20:53:07.247Z,22.20
2018-06-04T20:55:38.133Z,22.20
2018-06-04T20:58:08.494Z,22.20
2018-06-04T21:00:38.744Z,22.20
2018-06-04T21:03:15.474Z,22.20
2018-06-04T21:05:45.566Z,22.20
2018-06-04T21:08:15.985Z,22.00
2018-06-04T21:10:46.404Z,21.80
2018-06-04T21:15:46.775Z,21.30
2018-06-04T21:18:17.188Z,21.00
2018-06-04T21:20:47.915Z,20.80
2018-06-04T21:23:18.513Z,20.70
2018-06-04T21:25:48.704Z,20.50
2018-06-04T21:28:18.576Z,20.40
2018-06-04T21:30:48.976Z,20.30
2018-06-04T21:33:19.214Z,20.20
2018-06-04T21:35:49.633Z,20.10
2018-06-04T21:40:50.314Z,19.90
2018-06-04T21:43:20.315Z,19.90
2018-06-04T21:45:50.417Z,19.80
2018-06-04T21:48:20.795Z,19.70
2018-06-04T21:50:52.825Z,19.70
2018-06-04T21:53:22.913Z,19.60
2018-06-04T21:55:53.415Z,19.60
2018-06-04T21:58:23.423Z,19.50
2018-06-04T22:00:54.306Z,19.30
2018-06-04T22:05:54.984Z,19.40
2018-06-04T22:08:25.154Z,19.40
2018-06-04T22:10:55.153Z,19.40
2018-06-04T22:13:25.443Z,19.30
2018-06-04T22:15:55.974Z,19.20
2018-06-04T22:18:26.354Z,19.10
2018-06-04T22:20:56.855Z,19.00
2018-06-04T22:23:27.156Z,18.90
2018-06-04T22:25:57.475Z,18.80
2018-06-04T22:28:27.463Z,18.70
2018-06-04T22:30:57.653Z,18.70
2018-06-04T22:33:27.685Z,18.70
2018-06-04T22:35:58.125Z,18.70
2018-06-04T22:38:28.045Z,18.80
2018-06-04T22:40:58.115Z,18.70
2018-06-04T22:43:28.915Z,18.70
2018-06-04T22:45:58.743Z,18.60
2018-06-04T22:48:28.936Z,18.70
2018-06-04T22:50:58.793Z,18.70
2018-06-04T22:53:29.105Z,18.70
2018-06-04T22:55:59.493Z,18.80
2018-06-04T22:58:29.773Z,18.80
2018-06-04T23:01:00.184Z,18.80
2018-06-04T23:03:30.057Z,18.70
2018-06-04T23:06:00.184Z,18.50
2018-06-04T23:08:30.144Z,18.40
2018-06-04T23:11:00.297Z,18.30
2018-06-04T23:16:00.463Z,18.00
2018-06-04T23:18:30.255Z,18.10
2018-06-04T23:21:00.705Z,18.10
2018-06-04T23:23:31.267Z,18.20
2018-06-04T23:26:01.596Z,18.10
2018-06-04T23:28:31.756Z,17.90
2018-06-04T23:31:01.894Z,17.70
2018-06-04T23:33:32.296Z,17.70
2018-06-04T23:36:03.276Z,17.70
2018-06-04T23:38:33.377Z,17.70
2018-06-04T23:41:03.916Z,17.80
2018-06-04T23:43:34.496Z,17.90
2018-06-04T23:46:05.574Z,17.90
2018-06-04T23:48:35.733Z,18.00
2018-06-04T23:51:05.929Z,17.90
2018-06-04T23:53:36.084Z,17.90
2018-06-04T23:56:06.355Z,17.90
2018-06-04T23:58:37.137Z,17.80
